Terminal Aerodrome Forecast
Issued by NWS

Home | Current Version | Previous Version | Text Only | Print | Product List | Glossary On
Versions: 1 2 3 4 5 6 7 8 9 10 11 12 13 14 15 16
000
FTUS43 KIND 050500
TAFHUF
TAF
KHUF 050520Z 0506/0606 VRB02KT P6SM SCT070 BKN120
     FM050900 19004KT P6SM SCT050 SCT120 BKN250
      TEMPO 0509/0511 4SM BR
     FM051500 22011KT P6SM SCT050 BKN250
     FM060100 17003KT P6SM FEW050 BKN250=

USA.gov is the U.S. government's official web portal to all federal, state and local government web resources and services.